createdAt,value
2023-03-17T00:01:25.839Z,100993.56
2023-03-17T00:04:16.593Z,101025.47
2023-03-17T00:07:09.005Z,100949.91
2023-03-17T00:09:59.786Z,101018.41
2023-03-17T00:12:53.804Z,100975.53
2023-03-17T00:15:40.851Z,100964.84
2023-03-17T00:18:34.079Z,101020.97
2023-03-17T00:21:31.263Z,101027.34
2023-03-17T00:24:20.238Z,100969.09
2023-03-17T00:27:33.247Z,101007.84
2023-03-17T00:30:24.335Z,100996.00
2023-03-17T00:33:16.912Z,100999.31
2023-03-17T00:36:14.363Z,100985.38
2023-03-17T00:42:01.876Z,100928.72
2023-03-17T00:44:50.293Z,100985.84
2023-03-17T00:47:40.470Z,100983.75
2023-03-17T00:50:28.938Z,100960.56
2023-03-17T00:53:23.746Z,100904.50
2023-03-17T00:56:14.784Z,100957.81
2023-03-17T00:59:03.243Z,100955.88
2023-03-17T01:01:55.691Z,100969.41
2023-03-17T01:04:52.913Z,100968.59
2023-03-17T01:07:48.976Z,100942.97
2023-03-17T01:10:36.225Z,100959.66
2023-03-17T01:13:23.145Z,100945.19
2023-03-17T01:16:11.110Z,100940.31
2023-03-17T01:18:58.582Z,100951.94
2023-03-17T01:21:48.187Z,100955.44
2023-03-17T01:24:35.081Z,100933.03
2023-03-17T01:27:25.507Z,100898.63
2023-03-17T01:30:37.626Z,100952.72
2023-03-17T01:33:23.997Z,100920.81
2023-03-17T01:36:11.461Z,100919.91
2023-03-17T01:38:58.745Z,100923.63
2023-03-17T01:41:47.438Z,100920.53
2023-03-17T01:44:33.753Z,100925.03
2023-03-17T01:47:23.862Z,100856.84
2023-03-17T01:50:10.418Z,100915.59
2023-03-17T01:52:58.558Z,100910.06
2023-03-17T01:55:45.986Z,100846.97
2023-03-17T01:58:33.662Z,100887.19
2023-03-17T02:01:27.069Z,100887.75
2023-03-17T02:04:14.386Z,100897.81
2023-03-17T02:07:02.711Z,100898.91
2023-03-17T02:09:51.306Z,100877.78
2023-03-17T02:12:44.761Z,100912.78
2023-03-17T02:15:37.553Z,100908.16
2023-03-17T02:18:24.489Z,100892.63
2023-03-17T02:21:50.468Z,100897.53
2023-03-17T02:24:43.403Z,100893.47
2023-03-17T02:27:35.015Z,100881.94
2023-03-17T02:30:23.479Z,100896.22
2023-03-17T02:33:12.051Z,100905.91
2023-03-17T02:35:58.750Z,100889.66
2023-03-17T02:38:45.507Z,100853.94
2023-03-17T02:41:32.070Z,100834.38
2023-03-17T02:44:19.395Z,100898.22
2023-03-17T02:47:08.733Z,100878.06
2023-03-17T02:49:55.619Z,100810.97
2023-03-17T02:52:42.030Z,100838.44
2023-03-17T02:55:28.612Z,100891.84
2023-03-17T02:58:14.936Z,100878.00
2023-03-17T03:01:01.606Z,100835.28
2023-03-17T03:03:47.973Z,100820.56
2023-03-17T03:06:35.324Z,100888.72
2023-03-17T03:09:21.887Z,100899.97
2023-03-17T03:12:10.202Z,100839.22
2023-03-17T03:14:56.598Z,100886.38
2023-03-17T03:17:43.339Z,100889.97
2023-03-17T03:20:29.913Z,100852.91
2023-03-17T03:23:16.510Z,100885.41
2023-03-17T03:26:03.804Z,100838.59
2023-03-17T03:28:51.328Z,100904.44
2023-03-17T03:31:37.810Z,100894.47
2023-03-17T03:34:27.013Z,100888.19
2023-03-17T03:37:16.231Z,100877.09
2023-03-17T03:40:04.073Z,100838.53
2023-03-17T03:42:50.542Z,100775.44
2023-03-17T03:45:45.733Z,100808.03
2023-03-17T03:48:31.974Z,100799.50
2023-03-17T03:51:18.538Z,100873.88
2023-03-17T03:54:05.198Z,100813.41
2023-03-17T03:56:55.024Z,100872.06
2023-03-17T03:59:41.303Z,100796.81
2023-03-17T04:02:28.681Z,100858.75
2023-03-17T04:05:15.798Z,100848.94
2023-03-17T04:08:02.458Z,100836.66
2023-03-17T04:10:49.568Z,100827.97
2023-03-17T04:13:36.695Z,100775.25
2023-03-17T04:16:23.078Z,100771.34
2023-03-17T04:19:12.163Z,100834.84
2023-03-17T04:21:58.718Z,100823.47
2023-03-17T04:24:46.257Z,100843.16
2023-03-17T04:27:33.038Z,100818.00
2023-03-17T04:30:20.036Z,100834.63
2023-03-17T04:33:06.402Z,100824.56
2023-03-17T04:35:53.185Z,100765.13
2023-03-17T04:38:39.777Z,100820.28
2023-03-17T04:41:26.782Z,100781.44
2023-03-17T04:44:13.302Z,100800.69
2023-03-17T04:47:02.378Z,100857.72
2023-03-17T04:49:49.252Z,100855.16
2023-03-17T04:52:37.105Z,100832.81
2023-03-17T04:55:23.620Z,100789.28
2023-03-17T04:58:11.794Z,100867.44
2023-03-17T05:01:00.344Z,100872.25
2023-03-17T05:03:47.412Z,100861.31
2023-03-17T05:06:34.008Z,100864.75
2023-03-17T05:09:21.298Z,100840.06
2023-03-17T05:12:08.842Z,100861.31
2023-03-17T05:14:58.737Z,100852.69
2023-03-17T05:17:45.449Z,100856.72
2023-03-17T05:20:32.409Z,100860.59
2023-03-17T05:23:22.466Z,100859.91
2023-03-17T05:26:09.226Z,100833.84
2023-03-17T05:29:14.762Z,100838.19
2023-03-17T05:32:01.854Z,100854.28
2023-03-17T05:34:52.194Z,100846.03
2023-03-17T05:37:41.920Z,100824.09
2023-03-17T05:40:29.029Z,100858.75
2023-03-17T05:43:16.575Z,100857.16
2023-03-17T05:46:04.614Z,100863.94
2023-03-17T05:48:53.365Z,100807.91
2023-03-17T05:51:42.339Z,100874.06
2023-03-17T05:54:31.770Z,100862.34
2023-03-17T05:57:19.032Z,100843.09
2023-03-17T06:00:06.097Z,100807.13
2023-03-17T06:02:52.988Z,100836.81
2023-03-17T06:05:40.862Z,100844.50
2023-03-17T06:08:27.601Z,100842.75
2023-03-17T06:11:14.582Z,100791.03
2023-03-17T06:14:02.032Z,100851.22
2023-03-17T06:16:49.271Z,100837.94
2023-03-17T06:19:35.942Z,100851.13
2023-03-17T06:22:26.150Z,100869.81
2023-03-17T06:25:12.924Z,100853.59
2023-03-17T06:28:02.785Z,100863.56
2023-03-17T06:30:49.797Z,100833.75
2023-03-17T06:33:36.466Z,100805.28
2023-03-17T06:36:22.784Z,100844.53
2023-03-17T06:39:11.240Z,100826.31
2023-03-17T06:41:57.652Z,100782.59
2023-03-17T06:44:44.196Z,100801.78
2023-03-17T06:47:34.403Z,100820.56
2023-03-17T06:50:21.708Z,100839.47
2023-03-17T06:53:08.486Z,100838.28
2023-03-17T06:55:55.116Z,100839.81
2023-03-17T06:58:45.652Z,100774.25
2023-03-17T07:01:38.689Z,100827.78
2023-03-17T07:04:25.499Z,100850.88
2023-03-17T07:07:12.305Z,100845.06
2023-03-17T07:10:01.085Z,100825.97
2023-03-17T07:12:50.544Z,100839.75
2023-03-17T07:15:37.614Z,100844.69
2023-03-17T07:18:27.013Z,100840.91
2023-03-17T07:21:13.689Z,100811.75
2023-03-17T07:24:00.500Z,100817.03
2023-03-17T07:26:49.461Z,100838.06
2023-03-17T07:29:36.908Z,100810.03
2023-03-17T07:32:26.719Z,100842.94
2023-03-17T07:35:15.592Z,100859.81
2023-03-17T07:38:03.337Z,100862.59
2023-03-17T07:40:50.064Z,100863.16
2023-03-17T07:43:39.370Z,100836.56
2023-03-17T07:46:28.009Z,100878.25
2023-03-17T07:49:15.113Z,100871.97
2023-03-17T07:52:02.001Z,100887.13
2023-03-17T07:54:49.237Z,100845.97
2023-03-17T07:57:37.605Z,100866.84
2023-03-17T08:00:27.280Z,100871.63
2023-03-17T08:03:14.776Z,100859.50
2023-03-17T08:06:06.298Z,100846.84
2023-03-17T08:08:56.772Z,100839.38
2023-03-17T08:11:44.575Z,100811.94
2023-03-17T08:14:34.988Z,100808.41
2023-03-17T08:17:44.808Z,100796.41
2023-03-17T08:20:38.217Z,100797.19
2023-03-17T08:27:39.847Z,100792.84
2023-03-17T08:35:10.684Z,100795.25
2023-03-17T08:38:17.761Z,100789.22
2023-03-17T08:41:59.101Z,100798.47
2023-03-17T08:44:48.055Z,100806.22
2023-03-17T08:47:35.526Z,100800.47
2023-03-17T08:50:28.383Z,100786.88
2023-03-17T08:53:24.704Z,100755.81
2023-03-17T08:56:19.705Z,100799.28
2023-03-17T08:59:09.805Z,100791.13
2023-03-17T09:01:57.322Z,100752.94
2023-03-17T09:04:54.523Z,100802.34
2023-03-17T09:07:43.862Z,100763.09
2023-03-17T09:10:35.991Z,100786.84
2023-03-17T09:13:25.088Z,100765.31
2023-03-17T09:16:16.556Z,100779.81
2023-03-17T09:19:09.262Z,100784.19
2023-03-17T09:21:56.059Z,100777.63
2023-03-17T09:24:43.440Z,100766.19
2023-03-17T09:27:42.483Z,100782.00
2023-03-17T09:30:32.955Z,100797.53
2023-03-17T09:33:28.537Z,100770.88
2023-03-17T09:36:19.162Z,100771.41
2023-03-17T09:39:08.184Z,100747.94
2023-03-17T09:42:18.905Z,100770.31
2023-03-17T09:45:27.865Z,100754.78
2023-03-17T09:48:56.739Z,100777.91
2023-03-17T09:51:46.657Z,100733.50
2023-03-17T09:54:38.395Z,100726.44
2023-03-17T09:57:44.000Z,100741.97
2023-03-17T10:00:36.104Z,100731.31
2023-03-17T10:03:23.735Z,100732.97
2023-03-17T10:06:35.049Z,100733.78
2023-03-17T10:10:11.773Z,100729.69
2023-03-17T10:13:00.812Z,100706.00
2023-03-17T10:15:52.568Z,100717.69
2023-03-17T10:18:45.661Z,100724.78
2023-03-17T10:21:42.976Z,100677.63
2023-03-17T10:24:46.141Z,100682.28
2023-03-17T10:27:37.364Z,100672.72
2023-03-17T10:30:33.917Z,100672.47
2023-03-17T10:33:28.480Z,100698.63
2023-03-17T10:36:24.059Z,100710.06
2023-03-17T10:39:16.961Z,100688.28
2023-03-17T10:42:17.239Z,100719.06
2023-03-17T10:45:19.413Z,100682.50
2023-03-17T10:48:21.693Z,100683.84
2023-03-17T10:51:11.697Z,100699.56
2023-03-17T10:54:19.317Z,100700.31
2023-03-17T10:57:09.767Z,100687.00
2023-03-17T11:00:00.495Z,100679.84
2023-03-17T11:02:52.687Z,100672.53
2023-03-17T11:05:40.141Z,100659.16
2023-03-17T11:08:31.971Z,100685.56
2023-03-17T11:11:32.045Z,100693.72
2023-03-17T11:14:19.681Z,100678.41
2023-03-17T11:17:18.703Z,100658.72
2023-03-17T11:20:05.401Z,100636.63
2023-03-17T11:23:06.508Z,100619.97
2023-03-17T11:26:04.453Z,100615.59
2023-03-17T11:29:05.138Z,100609.84
2023-03-17T11:32:30.554Z,100608.75
2023-03-17T11:35:55.043Z,100618.56
2023-03-17T11:39:01.403Z,100606.31
2023-03-17T11:42:14.011Z,100615.88
2023-03-17T11:45:25.292Z,100616.66
2023-03-17T11:48:22.855Z,100632.75
2023-03-17T11:51:23.039Z,100628.09
2023-03-17T11:54:48.187Z,100612.53
2023-03-17T11:58:02.016Z,100610.03
2023-03-17T12:00:59.098Z,100593.91
2023-03-17T12:03:53.170Z,100581.84
2023-03-17T12:06:48.391Z,100566.34
2023-03-17T12:09:41.124Z,100568.19
2023-03-17T12:12:32.823Z,100547.66
2023-03-17T12:15:31.932Z,100555.28
2023-03-17T12:18:21.567Z,100536.63
2023-03-17T12:21:27.305Z,100529.34
2023-03-17T12:24:17.486Z,100535.06
2023-03-17T12:27:09.739Z,100530.97
2023-03-17T12:30:36.212Z,100503.66
2023-03-17T12:33:52.017Z,100518.03
2023-03-17T12:36:39.557Z,100532.28
2023-03-17T12:39:34.592Z,100532.22
2023-03-17T12:42:52.460Z,100524.81
2023-03-17T12:46:23.309Z,100506.66
2023-03-17T12:49:15.582Z,100519.34
2023-03-17T12:52:17.185Z,100518.25
2023-03-17T12:55:05.956Z,100524.25
2023-03-17T12:58:05.679Z,100490.31
2023-03-17T13:01:32.604Z,100519.06
2023-03-17T13:04:37.387Z,100505.22
2023-03-17T13:07:32.697Z,100526.09
2023-03-17T13:10:41.004Z,100524.47
2023-03-17T13:13:50.634Z,100528.06
2023-03-17T13:16:41.793Z,100519.88
2023-03-17T13:19:33.451Z,100493.81
2023-03-17T13:22:22.141Z,100523.13
2023-03-17T13:25:15.442Z,100539.75
2023-03-17T13:28:13.859Z,100515.97
2023-03-17T13:31:40.452Z,100521.97
2023-03-17T13:34:28.998Z,100496.31
2023-03-17T13:37:57.011Z,100522.22
2023-03-17T13:40:55.482Z,100510.19
2023-03-17T13:44:24.452Z,100501.41
2023-03-17T13:47:23.072Z,100498.13
2023-03-17T13:50:21.880Z,100507.44
2023-03-17T13:53:12.586Z,100482.44
2023-03-17T13:56:36.408Z,100517.53
2023-03-17T14:12:45.170Z,100470.81
2023-03-17T14:15:46.789Z,100483.88
2023-03-17T14:18:40.679Z,100474.53
2023-03-17T14:21:32.151Z,100471.78
2023-03-17T14:24:21.306Z,100465.75
2023-03-17T14:27:09.185Z,100472.56
2023-03-17T14:29:55.959Z,100430.75
2023-03-17T14:32:47.552Z,100430.47
2023-03-17T14:35:37.738Z,100455.91
2023-03-17T14:38:25.925Z,100460.56
2023-03-17T14:41:18.325Z,100459.50
2023-03-17T14:44:09.096Z,100458.66
2023-03-17T14:47:04.252Z,100454.59
2023-03-17T14:49:53.325Z,100446.44
2023-03-17T14:52:41.839Z,100442.91
2023-03-17T14:55:43.595Z,100420.69
2023-03-17T14:58:39.986Z,100386.38
2023-03-17T15:01:37.036Z,100440.16
2023-03-17T15:04:26.309Z,100444.22
2023-03-17T15:07:37.345Z,100442.91
2023-03-17T15:10:24.831Z,100443.16
2023-03-17T15:13:12.357Z,100404.63
2023-03-17T15:16:05.830Z,100415.28
2023-03-17T15:19:21.099Z,100445.69
2023-03-17T15:22:48.580Z,100431.50
2023-03-17T15:25:39.416Z,100431.50
2023-03-17T15:28:29.580Z,100441.09
2023-03-17T15:31:23.600Z,100416.38
2023-03-17T15:34:14.545Z,100435.69
2023-03-17T15:37:01.186Z,100427.81
2023-03-17T15:39:49.612Z,100434.59
2023-03-17T15:42:38.088Z,100384.97
2023-03-17T15:45:24.487Z,100379.94
2023-03-17T15:48:23.859Z,100417.69
2023-03-17T15:51:13.240Z,100447.63
2023-03-17T15:53:59.932Z,100433.50
2023-03-17T15:56:52.419Z,100441.22
2023-03-17T15:59:40.485Z,100435.53
2023-03-17T16:02:27.540Z,100447.03
2023-03-17T16:05:21.635Z,100411.53
2023-03-17T16:08:12.865Z,100456.13
2023-03-17T16:11:00.035Z,100455.34
2023-03-17T16:13:47.833Z,100441.22
2023-03-17T16:16:42.656Z,100435.03
2023-03-17T16:19:29.610Z,100442.72
2023-03-17T16:22:37.058Z,100433.22
2023-03-17T16:25:36.951Z,100399.06
2023-03-17T16:28:28.020Z,100447.47
2023-03-17T16:31:24.009Z,100433.06
2023-03-17T16:34:30.332Z,100404.84
2023-03-17T16:37:16.801Z,100423.91
2023-03-17T16:40:05.173Z,100378.34
2023-03-17T16:42:52.185Z,100408.22
2023-03-17T16:45:39.663Z,100431.09
2023-03-17T16:48:26.362Z,100418.06
2023-03-17T16:51:13.590Z,100406.16
2023-03-17T16:54:00.289Z,100396.19
2023-03-17T16:56:47.417Z,100435.63
2023-03-17T16:59:34.483Z,100418.78
2023-03-17T17:02:21.552Z,100433.50
2023-03-17T17:05:16.856Z,100395.22
2023-03-17T17:08:04.328Z,100426.22
2023-03-17T17:10:51.215Z,100439.28
2023-03-17T17:13:37.827Z,100441.72
2023-03-17T17:16:28.680Z,100436.84
2023-03-17T17:19:17.052Z,100437.41
2023-03-17T17:22:06.590Z,100437.41
2023-03-17T17:24:53.536Z,100378.72
2023-03-17T17:27:42.165Z,100423.56
2023-03-17T17:30:32.342Z,100439.09
2023-03-17T17:33:19.908Z,100411.41
2023-03-17T17:36:14.179Z,100441.00
2023-03-17T17:39:01.859Z,100439.66
2023-03-17T17:41:49.030Z,100451.34
2023-03-17T17:44:38.736Z,100442.41
2023-03-17T17:47:25.802Z,100439.13
2023-03-17T17:50:33.634Z,100453.28
2023-03-17T17:53:20.575Z,100449.47
2023-03-17T17:56:07.843Z,100440.78
2023-03-17T17:58:54.839Z,100440.50
2023-03-17T18:01:41.839Z,100437.25
2023-03-17T18:04:28.890Z,100447.59
2023-03-17T18:07:16.261Z,100442.97
2023-03-17T18:10:04.165Z,100438.06
2023-03-17T18:12:50.810Z,100412.22
2023-03-17T18:15:37.904Z,100441.31
2023-03-17T18:18:24.471Z,100432.59
2023-03-17T18:21:19.064Z,100425.28
2023-03-17T18:24:09.188Z,100441.31
2023-03-17T18:26:56.016Z,100428.53
2023-03-17T18:29:43.639Z,100431.78
2023-03-17T18:32:30.721Z,100433.69
2023-03-17T18:35:27.260Z,100395.06
2023-03-17T18:38:14.292Z,100428.53
2023-03-17T18:41:01.672Z,100417.38
2023-03-17T18:43:49.021Z,100419.56
2023-03-17T18:46:38.932Z,100416.28
2023-03-17T18:49:28.743Z,100349.41
2023-03-17T18:52:15.916Z,100403.53
2023-03-17T18:55:03.111Z,100355.66
2023-03-17T18:57:49.313Z,100356.75
2023-03-17T19:00:40.084Z,100381.75
2023-03-17T19:03:27.918Z,100364.34
2023-03-17T19:06:17.668Z,100388.56
2023-03-17T19:09:04.416Z,100391.28
2023-03-17T19:11:53.093Z,100395.06
2023-03-17T19:14:40.718Z,100392.34
2023-03-17T19:17:28.638Z,100377.69
2023-03-17T19:20:16.361Z,100363.81
2023-03-17T19:23:08.525Z,100373.59
2023-03-17T19:25:57.815Z,100384.47
2023-03-17T19:29:05.065Z,100389.09
2023-03-17T19:31:52.315Z,100368.97
2023-03-17T19:34:39.324Z,100371.69
2023-03-17T19:37:26.645Z,100383.91
2023-03-17T19:40:16.567Z,100375.22
2023-03-17T19:43:05.052Z,100381.75
2023-03-17T19:45:59.907Z,100370.63
2023-03-17T19:48:46.519Z,100392.09
2023-03-17T19:51:33.650Z,100401.06
2023-03-17T19:54:23.523Z,100389.66
2023-03-17T19:57:15.040Z,100387.47
2023-03-17T20:00:02.852Z,100347.78
2023-03-17T20:02:57.147Z,100354.31
2023-03-17T20:05:45.849Z,100351.31
2023-03-17T20:08:40.427Z,100339.34
2023-03-17T20:11:27.650Z,100370.63
2023-03-17T20:14:14.772Z,100361.09
2023-03-17T20:17:01.270Z,100307.00
2023-03-17T20:19:47.964Z,100348.31
2023-03-17T20:22:35.161Z,100343.16
2023-03-17T20:25:22.886Z,100345.34
2023-03-17T20:28:11.780Z,100342.31
2023-03-17T20:31:03.064Z,100352.66
2023-03-17T20:33:50.096Z,100322.22
2023-03-17T20:36:42.646Z,100344.78
2023-03-17T20:39:29.782Z,100342.06
2023-03-17T20:42:18.353Z,100305.91
2023-03-17T20:45:09.199Z,100320.81
2023-03-17T20:47:56.475Z,100315.66
2023-03-17T20:50:52.972Z,100338.50
2023-03-17T20:53:39.956Z,100330.91
2023-03-17T20:56:28.650Z,100347.50
2023-03-17T20:59:15.680Z,100340.69
2023-03-17T21:02:02.644Z,100333.06
2023-03-17T21:04:49.375Z,100299.31
2023-03-17T21:07:35.892Z,100311.31
2023-03-17T21:10:23.544Z,100339.03
2023-03-17T21:13:10.190Z,100328.97
2023-03-17T21:15:58.291Z,100280.03
2023-03-17T21:18:48.065Z,100334.69
2023-03-17T21:21:34.964Z,100279.16
2023-03-17T21:24:28.610Z,100342.53
2023-03-17T21:27:15.823Z,100339.78
2023-03-17T21:30:02.445Z,100344.69
2023-03-17T21:32:49.790Z,100340.31
2023-03-17T21:35:37.114Z,100332.16
2023-03-17T21:38:25.228Z,100337.59
2023-03-17T21:41:33.386Z,100329.44
2023-03-17T21:44:22.370Z,100322.94
2023-03-17T21:47:09.011Z,100316.66
2023-03-17T21:49:56.683Z,100310.69
2023-03-17T21:52:46.520Z,100312.59
2023-03-17T21:55:33.622Z,100318.28
2023-03-17T21:58:21.431Z,100296.78
2023-03-17T22:01:10.269Z,100306.31
2023-03-17T22:03:56.893Z,100297.56
2023-03-17T22:06:44.102Z,100303.06
2023-03-17T22:09:31.538Z,100299.53
2023-03-17T22:12:19.557Z,100294.09
2023-03-17T22:15:06.696Z,100245.91
2023-03-17T22:17:53.455Z,100302.16
2023-03-17T22:20:40.549Z,100287.81
2023-03-17T22:23:50.202Z,100296.50
2023-03-17T22:26:39.163Z,100265.19
2023-03-17T22:29:26.736Z,100292.38
2023-03-17T22:32:13.489Z,100312.78
2023-03-17T22:35:00.447Z,100293.75
2023-03-17T22:37:47.613Z,100293.44
2023-03-17T22:40:35.915Z,100288.84
2023-03-17T22:43:23.340Z,100305.69
2023-03-17T22:46:11.273Z,100284.72
2023-03-17T22:48:57.768Z,100293.69
2023-03-17T22:51:50.646Z,100303.50
2023-03-17T22:54:36.888Z,100252.97
2023-03-17T22:57:23.935Z,100303.78
2023-03-17T23:00:19.817Z,100302.94
2023-03-17T23:03:06.939Z,100274.59
2023-03-17T23:05:57.285Z,100267.50
2023-03-17T23:08:45.959Z,100246.56
2023-03-17T23:11:32.677Z,100248.47
2023-03-17T23:14:19.620Z,100259.94
2023-03-17T23:17:07.667Z,100293.94
2023-03-17T23:19:55.477Z,100291.00
2023-03-17T23:22:42.709Z,100285.00
2023-03-17T23:25:31.993Z,100289.38
2023-03-17T23:28:19.451Z,100261.94
2023-03-17T23:31:06.680Z,100291.59
2023-03-17T23:33:53.024Z,100278.22
2023-03-17T23:36:40.773Z,100282.31
2023-03-17T23:39:27.821Z,100282.81
2023-03-17T23:42:17.512Z,100279.81
2023-03-17T23:45:05.495Z,100289.88
2023-03-17T23:47:52.990Z,100282.00
2023-03-17T23:50:41.484Z,100249.09
2023-03-17T23:53:28.540Z,100280.72
2023-03-17T23:56:15.030Z,100227.63
2023-03-17T23:59:03.934Z,100277.44
